Time;durP1;ratioP1;P1;durP2;ratioP2;P2;SDS_P1;SDS_P2;PMS_P1;PMS_P2;Temp;Humidity;BMP_temperature;BMP_pressure;BME280_temperature;BME280_humidity;BME280_pressure;Samples;Min_cycle;Max_cycle;Signal;HPM_P1;HPM_P2
2021/06/27 00:00:15;;;;;;;3.97;3.22;;;23.70;99.90;;;;;;5052571;28;20211;-75
2021/06/27 00:02:42;;;;;;;5.10;2.75;;;23.80;99.90;;;;;;5052079;28;20206;-75
2021/06/27 00:05:11;;;;;;;5.30;3.55;;;23.80;99.90;;;;;;5052513;28;20241;-72
2021/06/27 00:07:39;;;;;;;5.65;3.33;;;23.80;99.90;;;;;;5051546;28;20256;-72
2021/06/27 00:10:09;;;;;;;3.10;2.70;;;23.70;99.90;;;;;;5051906;28;20225;-75
2021/06/27 00:12:38;;;;;;;4.18;3.22;;;23.70;99.90;;;;;;5052187;28;20227;-73
2021/06/27 00:15:07;;;;;;;6.63;3.90;;;23.80;99.90;;;;;;5052351;28;20210;-72
2021/06/27 00:17:34;;;;;;;3.90;3.50;;;23.70;99.90;;;;;;5052036;28;20227;-73
2021/06/27 00:20:01;;;;;;;4.20;3.08;;;23.90;99.90;;;;;;5052112;28;20256;-74
2021/06/27 00:22:28;;;;;;;6.63;3.78;;;23.80;99.90;;;;;;5051355;28;20203;-74
2021/06/27 00:24:55;;;;;;;5.43;2.85;;;23.60;99.90;;;;;;5051560;28;20215;-74
2021/06/27 00:27:22;;;;;;;2.70;2.50;;;23.30;99.90;;;;;;5049945;28;20253;-74
2021/06/27 00:29:51;;;;;;;4.63;2.78;;;23.10;99.90;;;;;;5051391;28;20261;-74
2021/06/27 00:32:18;;;;;;;4.10;3.13;;;23.00;99.90;;;;;;5051704;28;20264;-72
2021/06/27 00:34:45;;;;;;;5.85;2.95;;;23.00;99.90;;;;;;5051397;28;20256;-75
2021/06/27 00:37:12;;;;;;;3.67;3.38;;;23.00;99.90;;;;;;5050889;28;20230;-74
2021/06/27 00:39:39;;;;;;;4.18;2.78;;;22.90;99.90;;;;;;5050981;28;20732;-72
2021/06/27 00:42:06;;;;;;;4.32;3.10;;;22.80;99.90;;;;;;5051819;28;20202;-73
2021/06/27 00:44:33;;;;;;;5.65;3.53;;;22.90;99.90;;;;;;5051456;28;20740;-75
2021/06/27 00:47:02;;;;;;;3.25;3.05;;;23.00;99.90;;;;;;5051119;28;20635;-73
2021/06/27 00:49:29;;;;;;;5.32;3.50;;;23.00;99.90;;;;;;5051499;28;20272;-72
2021/06/27 00:51:55;;;;;;;4.05;3.63;;;23.10;99.90;;;;;;5050516;28;20207;-74
2021/06/27 00:54:22;;;;;;;4.45;3.80;;;23.10;99.90;;;;;;5051529;28;20253;-74
2021/06/27 00:56:49;;;;;;;4.43;4.07;;;23.20;99.90;;;;;;5050648;28;20260;-75
2021/06/27 00:59:16;;;;;;;4.32;4.00;;;23.20;99.90;;;;;;5051301;28;20280;-72
2021/06/27 01:01:43;;;;;;;4.30;3.83;;;23.00;99.90;;;;;;5050624;28;20264;-74
2021/06/27 01:04:12;;;;;;;4.90;4.28;;;22.90;99.90;;;;;;5037240;28;20203;-74
2021/06/27 01:06:39;;;;;;;5.35;3.65;;;22.90;99.90;;;;;;5050809;28;20629;-73
2021/06/27 01:09:06;;;;;;;4.65;3.53;;;23.00;99.90;;;;;;5050746;28;20625;-73
2021/06/27 01:11:33;;;;;;;5.53;5.03;;;22.90;99.90;;;;;;5051466;28;20218;-73
2021/06/27 01:14:01;;;;;;;4.53;4.13;;;22.70;99.90;;;;;;5050844;28;20203;-74
2021/06/27 01:16:28;;;;;;;5.97;4.82;;;22.70;99.90;;;;;;5050916;28;20214;-73
2021/06/27 01:18:55;;;;;;;4.72;4.32;;;22.60;99.90;;;;;;5050010;28;20235;-74
2021/06/27 01:21:24;;;;;;;5.32;4.57;;;22.60;99.90;;;;;;5050725;28;20238;-74
2021/06/27 01:23:51;;;;;;;4.88;4.47;;;22.40;99.90;;;;;;5050281;28;20253;-74
2021/06/27 01:26:18;;;;;;;6.60;4.55;;;22.30;99.90;;;;;;5050775;28;20218;-74
2021/06/27 01:28:45;;;;;;;4.97;4.50;;;22.00;99.90;;;;;;5050576;28;20616;-73
2021/06/27 01:31:12;;;;;;;5.45;4.60;;;21.90;99.90;;;;;;5050207;28;20727;-73
2021/06/27 01:33:39;;;;;;;4.75;4.35;;;21.60;99.90;;;;;;5050086;28;20241;-73
2021/06/27 01:36:07;;;;;;;6.03;4.95;;;21.40;99.90;;;;;;5050451;28;20207;-73
2021/06/27 01:38:36;;;;;;;5.15;4.70;;;21.30;99.90;;;;;;5051022;28;20257;-73
2021/06/27 01:41:05;;;;;;;6.55;5.22;;;21.00;99.90;;;;;;5050903;28;20302;-74
2021/06/27 01:43:32;;;;;;;8.07;5.60;;;20.90;99.90;;;;;;5050718;28;20265;-74
2021/06/27 01:46:01;;;;;;;7.00;5.93;;;20.80;99.90;;;;;;5049944;28;20214;-74
2021/06/27 01:48:29;;;;;;;10.68;6.15;;;20.60;99.90;;;;;;5050062;28;20232;-74
2021/06/27 01:50:58;;;;;;;6.05;5.45;;;20.70;99.90;;;;;;5049571;28;20619;-74
2021/06/27 01:53:27;;;;;;;5.78;5.28;;;20.50;99.90;;;;;;5050323;28;20215;-73
2021/06/27 01:56:05;;;;;;;5.53;5.03;;;19.70;99.90;;;;;;5049890;28;20207;-73
2021/06/27 01:58:37;;;;;;;6.85;6.18;;;19.70;99.90;;;;;;5050266;28;20230;-74
2021/06/27 02:01:07;;;;;;;7.75;6.82;;;19.70;99.90;;;;;;5050632;28;20210;-74
2021/06/27 02:03:35;;;;;;;9.15;5.15;;;19.60;99.90;;;;;;5050668;28;20207;-73
2021/06/27 02:06:02;;;;;;;7.88;5.32;;;19.60;99.90;;;;;;5050822;28;20210;-73
2021/06/27 02:08:33;;;;;;;6.82;5.88;;;19.60;99.90;;;;;;5050152;28;20215;-73
2021/06/27 02:11:03;;;;;;;6.30;5.25;;;19.70;99.90;;;;;;5049882;28;20210;-74
2021/06/27 02:13:30;;;;;;;7.35;5.30;;;19.70;99.90;;;;;;5050555;28;20228;-73
2021/06/27 02:15:58;;;;;;;7.05;4.88;;;19.70;99.90;;;;;;5050097;28;20580;-73
2021/06/27 02:18:30;;;;;;;5.97;5.38;;;19.80;99.90;;;;;;5049854;28;20288;-72
2021/06/27 02:20:59;;;;;;;7.40;5.72;;;19.60;99.90;;;;;;5049760;28;20682;-73
2021/06/27 02:23:26;;;;;;;7.07;6.47;;;19.70;99.90;;;;;;5050191;28;20207;-73
2021/06/27 02:25:53;;;;;;;6.15;5.57;;;19.70;99.90;;;;;;5049541;28;20639;-72
2021/06/27 02:28:22;;;;;;;10.93;6.10;;;19.40;99.90;;;;;;5050284;28;20211;-73
2021/06/27 02:30:49;;;;;;;7.43;5.85;;;19.30;99.90;;;;;;5049573;28;20211;-74
2021/06/27 02:33:16;;;;;;;8.60;5.97;;;19.10;99.90;;;;;;5050066;28;20226;-73
2021/06/27 02:35:44;;;;;;;6.63;6.03;;;18.90;99.90;;;;;;5049293;28;20265;-72
2021/06/27 02:38:11;;;;;;;8.60;7.63;;;18.90;99.90;;;;;;5050045;28;20231;-73
2021/06/27 02:40:38;;;;;;;9.52;7.32;;;18.80;99.90;;;;;;5049592;28;20207;-73
2021/06/27 02:43:05;;;;;;;12.25;7.55;;;18.70;99.90;;;;;;5049664;28;20207;-73
2021/06/27 02:45:34;;;;;;;11.00;7.50;;;18.80;99.90;;;;;;5050490;28;20211;-73
2021/06/27 02:48:01;;;;;;;8.57;7.00;;;18.70;99.90;;;;;;5049446;28;20215;-72
2021/06/27 02:50:28;;;;;;;8.13;7.32;;;18.80;99.90;;;;;;5049518;28;20690;-73
2021/06/27 02:52:55;;;;;;;9.32;7.47;;;18.80;99.90;;;;;;5049504;28;20268;-72
2021/06/27 02:55:23;;;;;;;11.43;7.70;;;18.90;99.90;;;;;;5049828;28;20203;-73
2021/06/27 02:57:51;;;;;;;8.38;7.00;;;18.80;99.90;;;;;;5049508;28;20261;-72
2021/06/27 03:00:21;;;;;;;8.75;7.25;;;18.90;99.90;;;;;;5050155;28;20213;-73
2021/06/27 03:02:49;;;;;;;8.77;7.85;;;19.10;99.90;;;;;;5052872;28;20207;-72
2021/06/27 03:05:17;;;;;;;14.63;7.85;;;19.10;99.90;;;;;;5053106;28;20268;-73
2021/06/27 03:07:44;;;;;;;8.85;7.72;;;18.90;99.90;;;;;;5053165;28;20210;-73
2021/06/27 03:10:13;;;;;;;8.70;7.88;;;18.70;99.90;;;;;;5052947;28;20219;-72
2021/06/27 03:12:40;;;;;;;10.23;8.70;;;18.90;99.90;;;;;;5052745;28;20260;-73
2021/06/27 03:15:08;;;;;;;11.40;8.35;;;18.70;99.90;;;;;;5052980;28;20211;-73
2021/06/27 03:17:36;;;;;;;8.77;7.88;;;18.60;99.90;;;;;;5053275;28;20210;-72
2021/06/27 03:20:05;;;;;;;8.90;8.10;;;18.80;99.90;;;;;;5053198;28;20287;-72
2021/06/27 03:22:32;;;;;;;9.43;8.32;;;18.80;99.90;;;;;;5053401;28;20215;-73
2021/06/27 03:24:59;;;;;;;12.77;8.80;;;18.80;99.90;;;;;;5052909;28;20214;-73
2021/06/27 03:27:26;;;;;;;9.25;8.45;;;18.70;99.90;;;;;;5052849;28;20265;-73
2021/06/27 03:29:53;;;;;;;10.70;8.82;;;18.70;99.90;;;;;;5052379;28;20210;-73
2021/06/27 03:32:20;;;;;;;10.88;8.55;;;18.70;99.90;;;;;;5052577;28;20210;-72
2021/06/27 03:34:47;;;;;;;11.82;8.13;;;18.60;99.90;;;;;;5052304;28;20203;-73
2021/06/27 03:37:16;;;;;;;9.45;8.35;;;18.60;99.90;;;;;;5052737;28;20257;-72
2021/06/27 03:39:43;;;;;;;10.07;7.55;;;18.60;99.90;;;;;;5052217;28;20284;-72
2021/06/27 03:42:10;;;;;;;9.95;8.13;;;18.60;99.90;;;;;;5052697;28;20211;-72
2021/06/27 03:44:38;;;;;;;9.10;8.10;;;18.50;99.90;;;;;;5051863;28;20211;-72
2021/06/27 03:47:05;;;;;;;12.05;8.48;;;18.60;99.90;;;;;;5053244;28;20207;-72
2021/06/27 03:49:32;;;;;;;10.02;7.72;;;18.60;99.90;;;;;;5052879;28;20292;-72
2021/06/27 03:51:59;;;;;;;19.85;9.75;;;18.60;99.90;;;;;;5052453;28;20199;-72
2021/06/27 03:54:27;;;;;;;9.00;8.10;;;18.50;99.90;;;;;;5052624;28;20211;-72
2021/06/27 03:56:54;;;;;;;9.80;7.65;;;18.50;99.90;;;;;;5051899;28;20199;-72
2021/06/27 03:59:21;;;;;;;13.98;8.57;;;18.40;99.90;;;;;;5051932;28;20276;-72
2021/06/27 04:01:48;;;;;;;10.63;8.90;;;18.30;99.90;;;;;;5051988;28;20603;-73
2021/06/27 04:04:15;;;;;;;13.77;9.20;;;18.50;99.90;;;;;;5052342;28;20695;-73
2021/06/27 04:06:42;;;;;;;9.55;8.07;;;18.40;99.90;;;;;;5051662;28;20249;-73
2021/06/27 04:09:09;;;;;;;15.68;8.75;;;18.40;99.90;;;;;;5052170;28;20206;-72
2021/06/27 04:11:37;;;;;;;11.77;7.85;;;18.40;99.90;;;;;;5051611;28;20670;-73
2021/06/27 04:14:04;;;;;;;8.73;7.82;;;18.40;99.90;;;;;;5051979;28;20256;-73
2021/06/27 04:16:33;;;;;;;9.77;7.55;;;18.40;99.90;;;;;;5052561;28;20207;-73
2021/06/27 04:19:00;;;;;;;10.07;8.02;;;18.30;99.90;;;;;;5051459;28;20234;-72
2021/06/27 04:21:27;;;;;;;9.10;7.88;;;18.40;99.90;;;;;;5051956;28;20210;-73
2021/06/27 04:23:54;;;;;;;11.35;8.85;;;18.40;99.90;;;;;;5051502;28;20203;-73
2021/06/27 04:26:21;;;;;;;12.60;8.40;;;18.40;99.90;;;;;;5051544;28;20207;-73
2021/06/27 04:28:49;;;;;;;12.85;9.43;;;18.30;99.90;;;;;;5051219;28;20260;-74
2021/06/27 04:31:16;;;;;;;9.45;8.55;;;18.40;99.90;;;;;;5051931;28;20359;-74
2021/06/27 04:33:43;;;;;;;8.68;7.80;;;18.30;99.90;;;;;;5051061;28;20210;-73
2021/06/27 04:36:10;;;;;;;14.23;8.40;;;18.30;99.90;;;;;;5051657;28;20202;-73
2021/06/27 04:38:37;;;;;;;10.63;9.52;;;18.40;99.90;;;;;;5051052;28;20734;-74
2021/06/27 04:41:04;;;;;;;11.13;9.05;;;18.30;99.90;;;;;;5051830;28;20336;-74
2021/06/27 04:43:31;;;;;;;14.23;10.00;;;18.30;99.90;;;;;;5051739;28;20209;-73
2021/06/27 04:46:00;;;;;;;9.40;8.50;;;18.30;99.90;;;;;;5051357;28;20324;-74
2021/06/27 04:48:27;;;;;;;11.77;8.88;;;18.40;99.90;;;;;;5051346;28;20222;-73
2021/06/27 04:50:54;;;;;;;9.82;8.60;;;18.40;99.90;;;;;;5051005;28;20253;-74
2021/06/27 04:53:23;;;;;;;9.95;8.90;;;18.50;99.90;;;;;;5050972;28;20203;-73
2021/06/27 04:55:50;;;;;;;9.45;8.43;;;18.50;99.90;;;;;;5050973;28;20222;-74
2021/06/27 04:58:17;;;;;;;11.27;9.25;;;18.40;99.90;;;;;;5050609;28;20214;-74
2021/06/27 05:00:45;;;;;;;12.65;8.82;;;18.40;99.90;;;;;;5051095;28;20207;-74
2021/06/27 05:03:13;;;;;;;10.45;9.15;;;18.30;99.90;;;;;;5050798;28;20584;-74
2021/06/27 05:05:40;;;;;;;13.07;10.07;;;18.30;99.90;;;;;;5050616;28;20697;-74
2021/06/27 05:08:07;;;;;;;11.63;9.30;;;18.60;99.90;;;;;;5050853;28;20724;-73
2021/06/27 05:10:34;;;;;;;14.52;10.27;;;18.70;99.90;;;;;;5051107;28;20272;-74
2021/06/27 05:13:01;;;;;;;13.07;9.15;;;18.70;99.90;;;;;;5051016;28;20337;-74
2021/06/27 05:15:28;;;;;;;14.43;9.65;;;18.60;99.90;;;;;;5050845;28;20294;-74
2021/06/27 05:17:55;;;;;;;12.65;11.18;;;18.60;99.90;;;;;;5050541;28;20215;-74
2021/06/27 05:20:24;;;;;;;14.70;9.48;;;18.50;99.90;;;;;;5050456;28;20710;-74
2021/06/27 05:22:51;;;;;;;17.48;11.93;;;18.60;99.90;;;;;;5050630;28;20215;-74
2021/06/27 05:25:18;;;;;;;12.93;10.25;;;18.80;99.90;;;;;;5050755;28;20210;-74
2021/06/27 05:27:45;;;;;;;13.13;9.18;;;18.90;99.90;;;;;;5050105;28;20666;-74
2021/06/27 05:30:13;;;;;;;12.18;10.20;;;19.00;99.90;;;;;;5050585;28;20682;-74
2021/06/27 05:32:40;;;;;;;13.65;10.30;;;19.00;99.90;;;;;;5049970;28;20628;-74
2021/06/27 05:35:08;;;;;;;17.70;12.25;;;18.90;99.90;;;;;;5050377;28;20199;-74
2021/06/27 05:37:36;;;;;;;15.90;10.32;;;18.90;99.90;;;;;;5050761;28;20633;-73
2021/06/27 05:40:04;;;;;;;15.35;11.18;;;18.80;99.90;;;;;;5037453;28;20226;-73
2021/06/27 05:42:31;;;;;;;15.05;10.98;;;18.80;99.90;;;;;;5050924;28;20286;-72
2021/06/27 05:44:58;;;;;;;11.27;9.73;;;18.80;99.90;;;;;;5050112;28;20209;-73
2021/06/27 05:47:25;;;;;;;12.13;10.77;;;18.90;99.90;;;;;;5050585;28;20631;-72
2021/06/27 05:49:52;;;;;;;12.38;10.50;;;19.10;99.90;;;;;;5049836;28;20206;-73
2021/06/27 05:52:19;;;;;;;11.15;10.05;;;19.10;99.90;;;;;;5050722;28;20206;-73
2021/06/27 05:54:47;;;;;;;14.30;11.02;;;19.00;99.90;;;;;;5049643;28;20202;-74
2021/06/27 05:57:14;;;;;;;11.77;9.63;;;19.00;99.90;;;;;;5050512;28;20616;-74
2021/06/27 05:59:41;;;;;;;15.57;8.95;;;18.90;99.90;;;;;;5049739;28;20246;-73
2021/06/27 06:02:09;;;;;;;12.48;8.32;;;18.90;99.90;;;;;;5050139;28;20207;-73
2021/06/27 06:04:36;;;;;;;9.57;8.27;;;18.80;99.90;;;;;;5050234;28;20210;-72
2021/06/27 06:07:03;;;;;;;11.38;10.18;;;18.90;99.90;;;;;;5050484;28;20202;-74
2021/06/27 06:09:30;;;;;;;17.83;9.40;;;18.90;99.90;;;;;;5049958;28;20755;-73
2021/06/27 06:11:58;;;;;;;14.35;7.45;;;18.90;99.90;;;;;;5049531;28;20530;-71
2021/06/27 06:14:25;;;;;;;12.38;8.88;;;19.00;99.90;;;;;;5050416;28;20219;-72
2021/06/27 06:16:52;;;;;;;13.80;8.02;;;18.90;99.90;;;;;;5049741;28;20214;-73
2021/06/27 06:19:20;;;;;;;14.60;9.70;;;18.90;99.90;;;;;;5050444;28;20227;-74
2021/06/27 06:21:47;;;;;;;14.23;8.85;;;19.00;99.90;;;;;;5049989;28;20284;-74
2021/06/27 06:24:15;;;;;;;11.30;10.07;;;18.90;99.90;;;;;;5036140;28;20210;-73
2021/06/27 06:26:42;;;;;;;10.75;8.32;;;18.90;99.90;;;;;;5049679;28;20215;-73
2021/06/27 06:29:10;;;;;;;11.60;10.40;;;18.80;99.90;;;;;;5049675;28;20621;-74
2021/06/27 06:31:37;;;;;;;22.00;11.38;;;18.70;99.90;;;;;;5049739;28;20670;-71
2021/06/27 06:34:05;;;;;;;10.23;9.23;;;18.60;99.90;;;;;;5050096;28;20655;-73
2021/06/27 06:36:32;;;;;;;13.93;10.93;;;18.70;99.90;;;;;;5052670;28;20257;-74
2021/06/27 06:38:59;;;;;;;12.13;10.43;;;18.80;99.90;;;;;;5053587;28;20268;-73
2021/06/27 06:41:26;;;;;;;22.70;12.93;;;18.80;99.90;;;;;;5054051;28;20257;-75
2021/06/27 06:43:53;;;;;;;11.85;10.32;;;18.80;99.90;;;;;;5053490;28;20266;-74
2021/06/27 06:46:21;;;;;;;13.07;10.88;;;18.80;99.90;;;;;;5053715;28;20207;-74
2021/06/27 06:48:48;;;;;;;17.92;10.85;;;18.80;99.90;;;;;;5053429;28;20262;-74
2021/06/27 06:51:17;;;;;;;13.63;10.05;;;18.80;99.90;;;;;;5053561;28;20690;-74
2021/06/27 06:53:44;;;;;;;21.30;12.07;;;18.90;99.90;;;;;;5053196;28;20203;-74
2021/06/27 06:56:11;;;;;;;20.67;12.07;;;18.80;99.90;;;;;;5053603;28;20207;-73
2021/06/27 06:58:38;;;;;;;19.83;12.68;;;18.70;99.90;;;;;;5053134;28;20264;-73
2021/06/27 07:01:05;;;;;;;14.55;12.23;;;18.80;99.90;;;;;;5054001;28;20238;-74
2021/06/27 07:03:33;;;;;;;15.52;12.50;;;18.90;99.90;;;;;;5053422;28;20207;-74
2021/06/27 07:06:00;;;;;;;27.65;10.43;;;19.00;99.90;;;;;;5053479;28;20257;-74
2021/06/27 07:08:27;;;;;;;18.25;15.02;;;18.90;99.90;;;;;;5053099;28;20301;-73
2021/06/27 07:10:54;;;;;;;22.73;15.68;;;18.90;99.90;;;;;;5052694;28;20261;-75
2021/06/27 07:13:22;;;;;;;19.25;14.95;;;18.80;99.90;;;;;;5053272;28;20210;-74
2021/06/27 07:15:49;;;;;;;15.80;11.60;;;18.80;99.90;;;;;;5052781;28;20629;-72
2021/06/27 07:18:16;;;;;;;42.08;20.92;;;18.70;99.90;;;;;;5053405;28;20211;-74
2021/06/27 07:20:44;;;;;;;17.42;12.00;;;18.80;99.90;;;;;;5052525;28;20230;-74
2021/06/27 07:23:11;;;;;;;11.45;10.35;;;18.90;99.90;;;;;;5053169;28;20642;-74
2021/06/27 07:25:38;;;;;;;10.23;9.13;;;19.00;99.90;;;;;;5052336;28;20728;-73
2021/06/27 07:28:05;;;;;;;15.77;11.45;;;18.90;99.90;;;;;;5052978;28;20210;-73
2021/06/27 07:30:32;;;;;;;19.13;9.95;;;18.80;99.90;;;;;;5053254;28;20302;-73
2021/06/27 07:32:59;;;;;;;13.40;9.95;;;18.70;99.90;;;;;;5052800;28;20211;-74
2021/06/27 07:35:26;;;;;;;11.80;10.57;;;18.80;99.90;;;;;;5052835;28;20288;-73
2021/06/27 07:37:55;;;;;;;14.48;9.98;;;18.80;99.90;;;;;;5052203;28;20211;-74
2021/06/27 07:40:22;;;;;;;16.70;11.32;;;18.80;99.90;;;;;;5052894;28;20239;-74
2021/06/27 07:42:50;;;;;;;13.52;9.95;;;18.80;99.90;;;;;;5052041;28;20261;-75
2021/06/27 07:45:17;;;;;;;9.57;8.57;;;18.80;99.90;;;;;;5052932;28;20269;-74
2021/06/27 07:47:44;;;;;;;10.63;7.85;;;18.80;99.90;;;;;;5051206;28;20211;-74
2021/06/27 07:50:12;;;;;;;12.40;9.55;;;18.80;99.90;;;;;;5052251;28;20249;-74
2021/06/27 07:52:39;;;;;;;11.27;9.55;;;18.80;99.90;;;;;;5052001;28;20253;-73
2021/06/27 07:55:09;;;;;;;12.18;9.60;;;19.00;99.90;;;;;;5052157;28;20199;-74
2021/06/27 07:57:36;;;;;;;11.85;9.73;;;19.10;99.90;;;;;;5052631;28;20252;-73
2021/06/27 08:00:05;;;;;;;9.63;8.63;;;19.10;99.90;;;;;;5052452;28;20230;-73
2021/06/27 08:02:32;;;;;;;10.95;9.88;;;19.10;99.90;;;;;;5052618;28;20666;-74
2021/06/27 08:04:59;;;;;;;10.95;8.05;;;19.30;99.90;;;;;;5051641;28;20210;-74
2021/06/27 08:07:26;;;;;;;11.88;9.27;;;19.30;99.90;;;;;;5052380;28;20269;-74
2021/06/27 08:09:53;;;;;;;12.15;9.43;;;19.10;99.90;;;;;;5051743;28;20214;-74
2021/06/27 08:12:21;;;;;;;12.25;9.57;;;19.10;99.90;;;;;;5038509;28;20257;-74
2021/06/27 08:14:48;;;;;;;13.35;10.18;;;19.00;99.90;;;;;;5051942;28;20248;-73
2021/06/27 08:17:15;;;;;;;14.35;9.07;;;19.10;99.90;;;;;;5051639;28;20203;-74
2021/06/27 08:19:45;;;;;;;19.25;9.50;;;19.10;99.90;;;;;;5051145;28;20278;-74
2021/06/27 08:22:12;;;;;;;9.57;8.07;;;19.10;99.90;;;;;;5051868;28;20301;-74
2021/06/27 08:24:39;;;;;;;217.27;16.67;;;19.30;99.90;;;;;;5051778;28;20260;-74
2021/06/27 08:27:07;;;;;;;11.50;7.97;;;19.40;99.90;;;;;;5051836;28;20214;-73
2021/06/27 08:29:36;;;;;;;16.30;9.85;;;19.50;99.90;;;;;;5052301;28;20634;-74
2021/06/27 08:32:04;;;;;;;16.58;10.57;;;19.30;99.90;;;;;;5051661;28;20203;-73
2021/06/27 08:34:31;;;;;;;16.92;9.68;;;19.10;99.90;;;;;;5051963;28;20260;-73
2021/06/27 08:36:58;;;;;;;12.68;8.73;;;19.00;99.90;;;;;;5051576;28;20284;-74
2021/06/27 08:39:25;;;;;;;15.77;9.88;;;19.10;99.90;;;;;;5051649;28;20642;-74
2021/06/27 08:41:52;;;;;;;9.30;7.50;;;19.00;99.90;;;;;;5051352;28;20268;-74
2021/06/27 08:44:20;;;;;;;12.68;8.90;;;18.90;99.90;;;;;;5051598;28;20207;-74
2021/06/27 08:46:50;;;;;;;12.15;10.95;;;18.90;99.90;;;;;;5050856;28;20203;-73
2021/06/27 08:49:20;;;;;;;11.00;8.20;;;19.00;99.90;;;;;;5051555;28;20219;-73
2021/06/27 08:51:47;;;;;;;10.45;9.20;;;19.10;99.90;;;;;;5050721;28;20207;-73
2021/06/27 08:54:14;;;;;;;9.75;8.02;;;18.90;99.90;;;;;;5051394;28;20206;-73
2021/06/27 08:56:41;;;;;;;10.80;8.80;;;18.90;99.90;;;;;;5050931;28;20203;-74
2021/06/27 08:59:08;;;;;;;10.60;9.50;;;18.90;99.90;;;;;;5050842;28;20565;-73
2021/06/27 09:01:35;;;;;;;13.20;9.75;;;19.00;99.90;;;;;;5050948;28;20671;-73
2021/06/27 09:04:04;;;;;;;15.32;10.82;;;18.90;99.90;;;;;;5051324;28;20207;-73
2021/06/27 09:06:32;;;;;;;12.90;10.23;;;18.80;99.90;;;;;;5051472;28;20210;-72
2021/06/27 09:09:14;;;;;;;13.07;8.40;;;18.80;99.90;;;;;;5050724;28;20217;-73
2021/06/27 09:11:42;;;;;;;20.13;8.45;;;18.70;99.90;;;;;;5050293;28;20221;-72
2021/06/27 09:14:28;;;;;;;12.43;8.10;;;18.80;99.90;;;;;;5051433;28;20202;-73
2021/06/27 09:17:07;;;;;;;9.60;7.18;;;18.90;99.90;;;;;;5050228;28;20217;-73
2021/06/27 09:19:55;;;;;;;10.85;9.35;;;19.00;99.90;;;;;;5051153;28;20206;-73
2021/06/27 09:22:25;;;;;;;10.35;9.23;;;19.00;99.90;;;;;;5050511;28;20217;-73
2021/06/27 09:24:52;;;;;;;8.93;7.63;;;19.10;99.90;;;;;;5050512;28;20211;-73
2021/06/27 09:27:20;;;;;;;11.27;10.18;;;19.00;99.90;;;;;;5050610;28;20742;-73
2021/06/27 09:29:49;;;;;;;9.30;8.40;;;19.10;99.90;;;;;;5050254;28;20744;-73
2021/06/27 09:32:16;;;;;;;9.65;8.65;;;19.30;99.90;;;;;;5050441;28;20221;-73
2021/06/27 09:34:44;;;;;;;7.93;7.10;;;19.30;99.90;;;;;;5050190;28;20199;-73
2021/06/27 09:37:13;;;;;;;7.97;5.15;;;19.30;99.90;;;;;;5050850;28;20214;-73
2021/06/27 09:39:54;;;;;;;7.70;7.00;;;19.30;99.90;;;;;;5050330;28;20211;-73
2021/06/27 09:42:22;;;;;;;9.27;6.82;;;19.40;99.90;;;;;;5050433;28;20294;-73
2021/06/27 09:45:01;;;;;;;44.10;8.82;;;19.50;99.90;;;;;;5050074;28;20581;-72
2021/06/27 09:47:28;;;;;;;7.18;6.47;;;19.50;99.90;;;;;;5050233;28;20235;-72
2021/06/27 09:49:55;;;;;;;10.68;7.85;;;19.50;99.90;;;;;;5036217;28;20717;-73
2021/06/27 09:52:37;;;;;;;7.20;6.50;;;19.50;99.90;;;;;;5050785;28;20301;-73
2021/06/27 09:55:08;;;;;;;9.55;8.00;;;19.50;99.90;;;;;;5050608;28;20202;-73
2021/06/27 09:57:35;;;;;;;7.63;6.93;;;19.60;99.90;;;;;;5050633;28;20206;-73
2021/06/27 10:00:04;;;;;;;8.30;7.45;;;19.60;99.90;;;;;;5050197;28;20215;-72
2021/06/27 10:02:31;;;;;;;10.10;7.70;;;19.50;99.90;;;;;;5050889;28;20212;-73
2021/06/27 10:04:58;;;;;;;7.90;7.20;;;19.50;99.90;;;;;;5049925;28;20265;-72
2021/06/27 10:07:39;;;;;;;8.43;7.55;;;19.40;99.90;;;;;;5050293;28;20202;-72
2021/06/27 10:10:18;;;;;;;9.38;8.48;;;19.40;99.90;;;;;;5049930;28;20647;-72
2021/06/27 10:12:45;;;;;;;8.07;7.38;;;19.50;99.90;;;;;;5054225;28;20210;-73
2021/06/27 10:15:14;;;;;;;9.38;8.25;;;19.50;99.90;;;;;;5054333;28;20260;-73
2021/06/27 10:17:42;;;;;;;8.43;7.55;;;19.50;99.90;;;;;;5053817;28;20257;-73
2021/06/27 10:20:11;;;;;;;9.15;8.23;;;19.50;99.90;;;;;;5054157;28;20206;-73
2021/06/27 10:22:40;;;;;;;9.45;8.57;;;19.40;99.90;;;;;;5053974;28;20211;-73
2021/06/27 10:25:11;;;;;;;7.97;7.28;;;19.40;99.90;;;;;;5054463;28;20211;-73
2021/06/27 10:27:38;;;;;;;8.48;7.13;;;19.50;99.90;;;;;;5053776;28;20202;-73
2021/06/27 10:30:08;;;;;;;9.48;7.30;;;19.40;99.90;;;;;;5054139;28;20216;-73
2021/06/27 10:32:41;;;;;;;10.75;7.53;;;19.40;99.90;;;;;;5053874;28;20747;-74
2021/06/27 10:35:10;;;;;;;8.35;7.00;;;19.50;99.90;;;;;;5053591;28;20577;-73
2021/06/27 10:37:42;;;;;;;7.80;6.78;;;19.60;99.90;;;;;;5053596;28;20202;-72
2021/06/27 10:40:11;;;;;;;9.15;7.20;;;19.60;99.90;;;;;;5053686;28;20199;-73
2021/06/27 10:42:57;;;;;;;10.85;8.88;;;19.70;99.90;;;;;;5053792;28;20253;-73
2021/06/27 10:45:26;;;;;;;14.32;9.60;;;19.60;99.90;;;;;;5041828;28;20246;-73
2021/06/27 10:47:54;;;;;;;10.38;9.35;;;19.60;99.90;;;;;;5053309;28;20242;-73
2021/06/27 10:50:23;;;;;;;12.02;9.40;;;19.60;99.90;;;;;;5054005;28;20214;-74
2021/06/27 10:53:03;;;;;;;11.95;10.95;;;19.40;99.90;;;;;;5053291;28;20674;-73
2021/06/27 10:55:39;;;;;;;9.75;8.95;;;19.50;99.90;;;;;;5041311;28;20564;-73
2021/06/27 10:58:08;;;;;;;9.45;8.30;;;19.50;99.90;;;;;;5053472;28;20221;-74
2021/06/27 11:01:05;;;;;;;9.07;8.15;;;19.60;99.90;;;;;;5053725;28;20241;-72
2021/06/27 11:03:35;;;;;;;9.35;8.52;;;19.70;99.90;;;;;;5053672;28;20199;-75
2021/06/27 11:06:04;;;;;;;9.13;7.28;;;19.60;99.90;;;;;;5053578;28;20211;-75
2021/06/27 11:08:38;;;;;;;8.27;7.22;;;19.70;99.90;;;;;;5053461;28;20211;-74
2021/06/27 11:11:11;;;;;;;10.60;9.48;;;19.70;99.90;;;;;;5053590;28;20666;-72
2021/06/27 11:13:39;;;;;;;10.30;9.30;;;19.70;99.90;;;;;;5052515;28;20249;-73
2021/06/27 11:16:12;;;;;;;8.82;8.05;;;19.60;99.90;;;;;;5053249;28;20207;-72
2021/06/27 11:18:42;;;;;;;9.90;8.43;;;19.80;99.90;;;;;;5052541;28;20746;-73
2021/06/27 11:21:25;;;;;;;8.77;7.45;;;19.80;99.90;;;;;;5053259;28;20771;-74
2021/06/27 11:23:59;;;;;;;8.30;6.63;;;20.00;99.90;;;;;;5050889;28;20657;-73
2021/06/27 11:27:03;;;;;;;7.85;7.05;;;20.10;99.90;;;;;;5052992;28;20210;-73
2021/06/27 11:29:43;;;;;;;9.23;8.32;;;20.40;99.90;;;;;;5040364;28;20210;-74
2021/06/27 11:32:43;;;;;;;8.85;8.00;;;20.40;99.90;;;;;;5052924;28;20215;-73
2021/06/27 11:35:12;;;;;;;15.88;11.43;;;20.20;99.90;;;;;;5052674;28;20207;-73
2021/06/27 11:37:47;;;;;;;10.45;6.95;;;20.30;99.90;;;;;;5052169;28;20210;-73
2021/06/27 11:40:15;;;;;;;9.43;8.57;;;20.40;99.90;;;;;;5052687;28;20682;-73
2021/06/27 11:42:47;;;;;;;9.48;7.18;;;20.30;99.90;;;;;;5051937;28;20277;-73
2021/06/27 11:45:49;;;;;;;10.52;7.35;;;20.30;99.90;;;;;;5052892;28;20273;-74
2021/06/27 11:48:17;;;;;;;8.00;7.25;;;20.20;99.90;;;;;;5052621;28;20258;-73
2021/06/27 11:50:55;;;;;;;7.53;6.80;;;20.00;99.90;;;;;;5052111;28;20239;-74
2021/06/27 11:53:24;;;;;;;7.60;6.50;;;19.90;99.90;;;;;;5052604;28;20260;-74
2021/06/27 11:56:07;;;;;;;11.00;5.70;;;19.80;99.90;;;;;;5052232;28;20261;-73
2021/06/27 11:58:34;;;;;;;8.45;6.32;;;19.80;99.90;;;;;;5052229;28;20252;-73
2021/06/27 12:01:08;;;;;;;8.63;7.03;;;19.70;99.90;;;;;;5052552;28;20246;-73
2021/06/27 12:03:44;;;;;;;6.28;5.72;;;19.90;99.90;;;;;;5052258;28;20203;-75
2021/06/27 12:06:12;;;;;;;6.30;5.63;;;20.30;99.90;;;;;;5052280;28;20629;-74
2021/06/27 12:08:43;;;;;;;7.00;6.38;;;20.50;99.90;;;;;;5051692;28;20725;-73
2021/06/27 12:11:12;;;;;;;6.63;6.05;;;20.70;99.90;;;;;;5052113;28;20202;-73
2021/06/27 12:13:39;;;;;;;6.78;5.65;;;20.70;99.90;;;;;;5051371;28;20302;-73
2021/06/27 12:16:07;;;;;;;7.13;5.60;;;20.40;99.90;;;;;;5052247;28;20207;-73
2021/06/27 12:18:35;;;;;;;6.65;6.05;;;20.20;99.90;;;;;;5052431;28;20679;-73
2021/06/27 12:21:05;;;;;;;8.32;7.63;;;20.20;99.90;;;;;;5052634;28;20334;-73
2021/06/27 12:23:34;;;;;;;6.43;5.90;;;20.10;99.90;;;;;;5052195;28;20210;-73
2021/06/27 12:26:02;;;;;;;7.05;5.75;;;19.90;99.90;;;;;;5052125;28;20199;-73
2021/06/27 12:28:33;;;;;;;5.70;5.18;;;19.80;99.90;;;;;;5051846;28;20211;-73
2021/06/27 12:31:01;;;;;;;6.13;5.57;;;19.60;99.90;;;;;;5051662;28;20210;-73
2021/06/27 12:33:30;;;;;;;6.20;5.32;;;19.50;99.90;;;;;;5051294;28;20302;-72
2021/06/27 12:35:59;;;;;;;6.47;5.88;;;19.50;99.90;;;;;;5050726;28;20686;-73
2021/06/27 12:38:27;;;;;;;8.25;6.13;;;19.90;99.90;;;;;;5051972;28;20210;-73
2021/06/27 12:40:56;;;;;;;5.53;5.03;;;20.10;99.90;;;;;;5050855;28;20596;-73
2021/06/27 12:43:37;;;;;;;5.10;4.60;;;20.40;99.90;;;;;;5051489;28;20203;-73
2021/06/27 12:46:31;;;;;;;5.57;5.07;;;20.60;99.90;;;;;;5051737;28;20257;-72
2021/06/27 12:49:11;;;;;;;6.32;5.72;;;20.90;99.90;;;;;;5040999;28;20276;-72